• Join FlightAware (Why Join?)
  • Login
  • US Flag 
11:10AM EDT


 

Airport Tracker/Info


-or-


 

Live Flight TrackerFlight Track Log ✈ UAL4115 ✈ 19-Apr-2014 ✈ MMGL / GDL - KIAH

Flight Track Log - Related Links

Times and Time Zones

All times are in EDT time to prevent confusion due to time zone crossing. See the UAL4115 flight status page for this flight to view local times or setup timezone preferences in your user account.

Time Position Orientation Groundspeed Altitude Reporting Facility
EDT Latitude Longitude Course Direction KTS MPH feet Rate Location/Type
08:14AM 23.7998 -101.3248 30° Northeast  Level FlightAware Approximate
08:15AM 23.8811 -101.2730 30° Northeast  Level FlightAware Approximate
08:16AM 23.9625 -101.2212 30° Northeast  Level FlightAware Approximate
08:17AM 24.0438 -101.1693 30° Northeast  Level FlightAware Approximate
08:18AM 24.1255 -101.1181 29° Northeast  Level FlightAware Approximate
08:19AM 24.2082 -101.0688 29° Northeast  Level FlightAware Approximate
08:19AM 25.1494 -100.7500 29° Northeast 505 581 35,000  Level Houston Center
08:20AM 24.2909 -101.0194 29° Northeast  Level FlightAware Approximate
08:20AM 25.2478 -100.6394 45° Northeast 505 581 35,000  Level Houston Center
08:21AM 24.3736 -100.9699 29° Northeast  Level FlightAware Approximate
08:21AM 25.3461 -100.5289 45° Northeast 506 582 35,000  Level Houston Center
08:22AM 24.4562 -100.9204 29° Northeast  Level FlightAware Approximate
08:22AM 25.4447 -100.4186 45° Northeast 505 581 35,000  Level Houston Center
08:23AM 24.5388 -100.8708 29° Northeast  Level FlightAware Approximate
08:23AM 25.5625 -100.2850 46° Northeast 506 582 35,000  Level Houston Center
08:24AM 24.6214 -100.8211 29° Northeast  Level FlightAware Approximate
08:24AM 25.6586 -100.1728 46° Northeast 506 582 35,000  Level Houston Center
08:25AM 25.7575 -100.0647 45° Northeast 503 579 35,000  Level Houston Center
08:26AM 25.8556 -99.9542 45° Northeast 503 579 35,000  Level Houston Center
08:27AM 25.9539 -99.8425 46° Northeast 504 580 35,000  Level Houston Center
08:28AM 26.0519 -99.7322 45° Northeast 504 580 35,000  Level Houston Center
08:29AM 26.1508 -99.6211 45° Northeast 504 580 35,000  Level Houston Center
08:30AM 26.2483 -99.5094 46° Northeast 504 580 35,000  Level Houston Center
08:31AM 26.3458 -99.3967 46° Northeast 505 581 35,000  Level Houston Center
08:32AM 26.4475 -99.2883 44° Northeast 506 582 35,000  Level Houston Center
08:33AM 26.5747 -99.1653 41° Northeast 506 582 35,000  Level Houston Center
08:34AM 26.6803 -99.0633 41° Northeast 505 581 35,000  Level Houston Center
08:35AM 26.7858 -98.9603 41° Northeast 504 580 35,000  Level Houston Center
08:36AM 26.8919 -98.8578 41° Northeast 504 580 35,000  Level Houston Center
08:37AM 26.9964 -98.7539 42° Northeast 505 581 35,000  Level Houston Center
08:38AM 27.1022 -98.6508 41° Northeast 506 582 35,000  Level Houston Center
08:39AM 27.2075 -98.5475 41° Northeast 506 582 35,000  Level Houston Center
08:40AM 27.3136 -98.4431 41° Northeast 508 585 35,000  Level Houston Center
08:41AM 27.4392 -98.3178 42° Northeast 508 585 35,000  Level Houston Center
08:42AM 27.5494 -98.2086 41° Northeast 508 585 35,000  Level Houston Center
08:43AM 27.6583 -98.1011 41° Northeast 508 585 35,000  Level Houston Center
08:44AM 27.7672 -97.9922 41° Northeast 508 585 35,000  Level Houston Center
08:45AM 27.8664 -97.8922 42° Northeast 509 586 35,000  Level Houston Center
08:46AM 27.9736 -97.7833 42° Northeast 508 585 35,000  Level Houston Center
08:47AM 28.0817 -97.6747 42° Northeast 508 585 35,000  Level Houston Center
08:48AM 28.1883 -97.5667 42° Northeast 505 581 35,000  Level Houston Center
08:49AM 28.2947 -97.4589 42° Northeast 505 581 35,000  Level Houston Center
08:50AM 28.4008 -97.3508 42° Northeast 503 579 35,000  Level Houston Center
08:51AM 28.5031 -97.2467 42° Northeast 503 579 35,000 -120 Level Houston Center
08:52AM 28.6064 -97.1414 42° Northeast 503 579 34,800 -840 Descending Houston Center
08:53AM 28.7108 -97.0350 42° Northeast 504 580 33,300 -1,980 Descending Houston Center
08:54AM 28.8136 -96.9283 42° Northeast 503 579 30,800 -2,640 Descending Houston Center
08:55AM 28.9142 -96.8239 42° Northeast 495 570 28,000 -3,000 Descending Houston Center
08:56AM 29.0306 -96.7036 42° Northeast 475 547 24,700 -3,000 Descending Houston Center
08:57AM 29.1256 -96.6064 42° Northeast 466 536 22,000 -2,760 Descending Houston Center
08:58AM 29.1967 -96.5308 43° Northeast 443 510 19,800 -2,700 Descending Houston Center
08:58AM 29.2161 -96.5131 39° Northeast 446 513 19,300 -2,640 Descending Houston Center
08:59AM 29.2469 -96.4800 43° Northeast 429 494 18,200 -2,520 Descending Houston Center
09:00AM 29.3006 -96.4244 42° Northeast 421 484 16,700 -2,820 Descending Houston Center
09:00AM 29.3336 -96.3892 43° Northeast 403 464 15,400 -3,060 Descending Houston Center
09:01AM 29.3825 -96.3397 41° Northeast 403 464 13,600 -3,000 Descending Houston Center
09:01AM 29.4264 -96.2950 42° Northeast 391 450 12,100 -2,760 Descending Houston Center
09:02AM 29.4617 -96.2572 43° Northeast 392 451 10,800 -2,100 Descending Houston Center
09:02AM 29.5033 -96.2122 43° Northeast 352 405 10,000 -900 Descending Houston Center
09:03AM 29.5328 -96.1836 40° Northeast 353 406 9,900  Descending Houston Center
09:03AM 29.5619 -96.1383 53° Northeast 329 379 10,000  Climbing Houston Center
09:04AM 29.5828 -96.0969 60° Northeast 334 384 9,900 -240 Descending Houston Center
09:04AM 29.6067 -96.0469 61° Northeast 298 343 9,800 -720 Descending Houston Center
09:05AM 29.6308 -96.0025 58° Northeast 293 337 9,200 -840 Descending Houston Center
09:05AM 29.6458 -95.9681 63° Northeast 276 318 9,000 -300 Descending Houston Center
09:06AM 29.6728 -95.9308 50° Northeast 278 320 8,900 -540 Descending Houston Center
09:06AM 29.7017 -95.9089 33° Northeast 283 326 8,500 -900 Descending Houston Center
09:07AM 29.7356 -95.8792 37° Northeast 279 321 8,000 -1,020 Descending Houston Center
09:07AM 29.7594 -95.8517 45° Northeast 276 318 7,500 -1,020 Descending Houston Center
09:08AM 29.7911 -95.8203 41° Northeast 275 316 7,000 -1,020 Descending Houston Center
09:08AM 29.8136 -95.7972 42° Northeast 260 299 6,500 -1,020 Descending Houston Center
09:09AM 29.8442 -95.7650 42° Northeast 262 302 6,000 -540 Descending Houston Center
09:09AM 29.8769 -95.7319 41° Northeast 259 298 5,900 -420 Descending Houston Center
09:10AM 29.8981 -95.7100 42° Northeast 261 300 5,600 -900 Descending Houston Center
09:10AM 29.9289 -95.6778 42° Northeast 258 297 5,000 -1,020 Descending Houston Center
09:11AM 29.9525 -95.6533 42° Northeast 261 300 4,600 -1,140 Descending Houston Center
09:11AM 29.9789 -95.6261 42° Northeast 259 298 4,000 -1,020 Descending Houston Center
09:12AM 29.9911 -95.5911 68° East 244 281 3,600 -900 Descending Houston Center
09:12AM 29.9917 -95.5569 89° East 219 252 3,100 -720 Descending Houston Center
09:13AM 29.9950 -95.5217 84° East 220 253 2,900 -720 Descending Houston Center
09:13AM 29.9942 -95.4917 92° East 195 224 2,400 -1,020 Descending Houston Center
09:14AM 29.9931 -95.4586 92° East 207 238 1,900 -1,020 Descending Houston Center
09:14AM 29.9931 -95.4339 90° East 150 173 1,400 -780 Descending Houston Center
09:15AM 29.9936 -95.4117 88° East 176 203 1,100 -720 Descending Houston Center
09:15AM 29.9933 -95.3903 91° East 127 146 700 -840 Descending Houston Center
09:16AM 29.9933 -95.3636 90° East 140 161 300 -600 Descending Houston Center